Time;durP1;ratioP1;P1;durP2;ratioP2;P2;SDS_P1;SDS_P2;PMS_P1;PMS_P2;Temp;Humidity;BMP_temperature;BMP_pressure;BME280_temperature;BME280_humidity;BME280_pressure;Samples;Min_cycle;Max_cycle;Signal;HPM_P1;HPM_P2
2022/09/04 00:00:09;;;;;;;1.40;1.08;;;22.50;95.10;;;;;;5013799;28;20029;-26
2022/09/04 00:02:49;;;;;;;1.42;1.10;;;22.40;95.00;;;;;;5031640;28;20378;-26
2022/09/04 00:05:29;;;;;;;1.73;0.95;;;22.50;95.10;;;;;;5031684;28;20084;-25
2022/09/04 00:08:19;;;;;;;1.10;1.00;;;22.40;95.00;;;;;;5035247;28;20033;-26
2022/09/04 00:10:59;;;;;;;1.33;0.90;;;22.50;95.00;;;;;;5035446;28;20087;-25
2022/09/04 00:13:33;;;;;;;1.58;0.95;;;22.40;95.00;;;;;;5035547;28;20542;-25
2022/09/04 00:16:12;;;;;;;1.17;0.80;;;22.40;95.00;;;;;;5035464;28;20538;-25
2022/09/04 00:18:50;;;;;;;1.48;1.00;;;22.40;95.00;;;;;;5035250;28;20034;-27
2022/09/04 00:21:30;;;;;;;1.10;1.00;;;22.50;95.30;;;;;;5035246;28;20025;-25
2022/09/04 00:24:07;;;;;;;2.30;0.90;;;22.40;94.90;;;;;;5035312;28;20026;-25
2022/09/04 00:26:53;;;;;;;1.77;1.10;;;22.40;95.00;;;;;;5035232;28;20061;-25
2022/09/04 00:29:28;;;;;;;1.00;0.90;;;22.40;94.90;;;;;;5037011;28;20379;-26
2022/09/04 00:32:09;;;;;;;1.95;1.35;;;22.40;94.90;;;;;;5036003;28;20064;-25
2022/09/04 00:34:54;;;;;;;1.00;0.90;;;22.40;94.90;;;;;;5035025;28;20489;-26
2022/09/04 00:37:28;;;;;;;3.28;0.98;;;22.40;94.90;;;;;;5034956;28;20029;-25
2022/09/04 00:40:09;;;;;;;1.20;1.10;;;22.40;94.90;;;;;;5035255;28;20025;-25
2022/09/04 00:42:46;;;;;;;1.10;0.98;;;22.40;94.90;;;;;;5034947;28;20057;-25
2022/09/04 00:45:26;;;;;;;2.65;1.10;;;22.40;94.90;;;;;;5034863;28;20018;-26
2022/09/04 00:48:00;;;;;;;1.48;1.00;;;22.40;94.90;;;;;;5034925;28;20449;-26
2022/09/04 00:50:47;;;;;;;1.08;0.93;;;22.40;94.90;;;;;;5034673;28;20475;-26
2022/09/04 00:53:22;;;;;;;1.85;0.90;;;22.40;94.80;;;;;;5034616;28;20041;-25
2022/09/04 00:55:59;;;;;;;1.40;0.82;;;22.40;94.80;;;;;;5034809;28;20110;-25
2022/09/04 00:58:51;;;;;;;1.80;0.82;;;22.40;94.80;;;;;;5034503;28;20062;-25
2022/09/04 01:01:27;;;;;;;1.55;1.08;;;22.40;94.80;;;;;;5034475;28;20026;-26
2022/09/04 01:04:28;;;;;;;4.15;0.90;;;22.30;94.80;;;;;;5034449;28;20097;-26
2022/09/04 01:07:02;;;;;;;1.58;1.00;;;22.30;94.80;;;;;;5034475;28;20029;-26
2022/09/04 01:10:07;;;;;;;1.63;0.82;;;22.40;94.80;;;;;;5034416;28;20029;-26
2022/09/04 01:12:41;;;;;;;1.52;0.88;;;22.40;94.80;;;;;;5019740;28;20038;-26
2022/09/04 01:15:14;;;;;;;1.30;0.90;;;22.40;94.80;;;;;;5034435;28;20380;-25
2022/09/04 01:17:58;;;;;;;1.75;1.00;;;22.40;94.80;;;;;;5033814;28;20537;-25
2022/09/04 01:20:49;;;;;;;1.30;1.10;;;22.30;94.70;;;;;;5034024;28;20021;-25
2022/09/04 01:23:48;;;;;;;0.98;0.82;;;22.40;94.70;;;;;;5034179;28;20029;-26
2022/09/04 01:26:22;;;;;;;1.58;1.00;;;22.30;94.70;;;;;;5034199;28;20041;-25
2022/09/04 01:29:06;;;;;;;;;;;22.30;94.70;;;;;;5034345;28;20021;-25
2022/09/04 01:31:51;;;;;;;1.05;0.80;;;22.30;94.70;;;;;;5033981;28;19905;-26
2022/09/04 01:34:34;;;;;;;2.08;1.08;;;22.30;94.70;;;;;;5034063;28;20064;-25
2022/09/04 01:37:05;;;;;;;1.20;1.00;;;22.30;94.70;;;;;;5034214;28;20035;-26
2022/09/04 01:39:34;;;;;;;2.58;1.10;;;22.30;94.70;;;;;;5033808;28;20029;-25
2022/09/04 01:42:07;;;;;;;3.03;0.90;;;22.30;94.70;;;;;;5033768;28;20025;-26
2022/09/04 01:44:34;;;;;;;1.57;0.90;;;22.30;94.60;;;;;;5033954;28;20029;-25
2022/09/04 01:47:29;;;;;;;1.33;0.90;;;22.40;94.60;;;;;;5033876;28;20343;-25
2022/09/04 01:50:09;;;;;;;0.80;0.80;;;22.30;94.60;;;;;;5033859;28;20029;-26
2022/09/04 01:52:55;;;;;;;1.85;0.80;;;22.30;94.60;;;;;;5033551;28;20033;-26
2022/09/04 01:55:46;;;;;;;1.25;0.98;;;22.30;94.60;;;;;;5033804;28;20044;-25
2022/09/04 01:58:22;;;;;;;2.10;0.90;;;22.30;94.60;;;;;;5033087;28;20076;-26
2022/09/04 02:01:21;;;;;;;3.92;1.30;;;22.30;94.60;;;;;;5033576;28;20092;-25
2022/09/04 02:03:46;;;;;;;1.17;0.90;;;22.30;94.60;;;;;;5033529;28;20021;-25
2022/09/04 02:06:32;;;;;;;1.33;0.90;;;22.30;94.50;;;;;;5033287;28;20383;-26
2022/09/04 02:09:09;;;;;;;1.55;1.17;;;22.30;94.50;;;;;;5033312;28;20018;-26
2022/09/04 02:11:37;;;;;;;1.10;0.95;;;22.30;94.50;;;;;;5033264;28;20046;-26
2022/09/04 02:14:19;;;;;;;1.38;0.90;;;22.30;94.50;;;;;;5033320;28;20100;-25
2022/09/04 02:17:37;;;;;;;2.00;0.90;;;22.30;94.50;;;;;;5033064;28;20053;-25
2022/09/04 02:20:26;;;;;;;2.03;0.95;;;22.30;94.50;;;;;;5028117;28;20029;-26
2022/09/04 02:23:23;;;;;;;0.80;0.80;;;22.30;94.50;;;;;;5032932;28;20022;-25
2022/09/04 02:25:56;;;;;;;1.27;0.80;;;22.20;94.40;;;;;;5033070;28;20540;-25
2022/09/04 02:29:02;;;;;;;0.80;0.70;;;22.30;94.50;;;;;;5032974;28;20398;-25
2022/09/04 02:31:47;;;;;;;2.20;0.80;;;22.20;94.40;;;;;;5028852;28;20044;-25
2022/09/04 02:34:30;;;;;;;1.73;0.85;;;22.20;94.50;;;;;;5032951;28;20025;-25
2022/09/04 02:37:37;;;;;;;2.15;1.00;;;22.20;94.40;;;;;;5032749;28;20029;-25
2022/09/04 02:40:15;;;;;;;2.28;1.10;;;22.20;94.40;;;;;;5032006;28;20033;-26
2022/09/04 02:43:14;;;;;;;1.20;0.85;;;22.20;94.40;;;;;;5032718;28;20018;-26
2022/09/04 02:46:02;;;;;;;1.35;0.90;;;22.20;94.40;;;;;;5033200;28;20028;-26
2022/09/04 02:48:43;;;;;;;1.17;0.77;;;22.10;94.40;;;;;;5032502;28;20040;-25
2022/09/04 02:51:25;;;;;;;1.05;0.75;;;22.20;94.40;;;;;;5032485;28;20041;-25
2022/09/04 02:54:09;;;;;;;1.10;1.00;;;22.20;94.40;;;;;;5032647;28;20065;-25
2022/09/04 02:56:42;;;;;;;;;;;22.20;94.40;;;;;;5033076;28;20115;-25
2022/09/04 02:59:26;;;;;;;0.80;0.80;;;22.10;94.30;;;;;;5032487;28;19906;-26
2022/09/04 03:02:02;;;;;;;1.80;0.90;;;22.10;94.30;;;;;;5032302;28;20022;-25
2022/09/04 03:04:54;;;;;;;1.27;0.90;;;22.20;94.40;;;;;;5032310;28;20549;-25
2022/09/04 03:08:00;;;;;;;1.10;0.90;;;22.10;94.30;;;;;;5032353;28;20104;-25
2022/09/04 03:10:44;;;;;;;2.63;0.73;;;22.10;94.30;;;;;;5021393;28;20045;-25
2022/09/04 03:13:28;;;;;;;1.77;0.82;;;22.10;94.30;;;;;;5032330;28;20021;-25
2022/09/04 03:16:11;;;;;;;1.20;0.82;;;22.10;94.30;;;;;;5032202;28;20021;-25
2022/09/04 03:18:49;;;;;;;0.88;0.80;;;22.10;94.30;;;;;;5031951;28;20037;-26
2022/09/04 03:21:47;;;;;;;1.00;0.90;;;22.10;94.30;;;;;;5031974;28;20027;-25
2022/09/04 03:24:16;;;;;;;1.38;0.90;;;22.10;94.30;;;;;;5021155;28;20129;-25
2022/09/04 03:26:49;;;;;;;2.55;1.00;;;22.10;94.30;;;;;;5032003;28;20069;-25
2022/09/04 03:29:25;;;;;;;0.80;0.80;;;22.10;94.30;;;;;;5032011;28;20490;-26
2022/09/04 03:32:14;;;;;;;1.83;1.10;;;22.10;94.30;;;;;;5031816;28;20105;-25
2022/09/04 03:34:45;;;;;;;4.68;0.90;;;22.10;94.20;;;;;;5031951;28;20022;-26
2022/09/04 03:37:49;;;;;;;1.02;0.80;;;22.10;94.20;;;;;;5031946;28;20056;-25
2022/09/04 03:40:34;;;;;;;1.08;0.93;;;22.10;94.20;;;;;;5031179;28;20482;-25
2022/09/04 03:43:22;;;;;;;1.08;0.98;;;22.10;94.20;;;;;;5038389;28;20494;-25
2022/09/04 03:46:20;;;;;;;1.75;0.90;;;22.00;94.20;;;;;;5038580;28;20025;-25
2022/09/04 03:48:54;;;;;;;0.73;0.70;;;22.00;94.10;;;;;;5038337;28;20382;-25
2022/09/04 03:51:24;;;;;;;;;;;22.00;94.10;;;;;;5038818;28;20033;-26
2022/09/04 03:54:06;;;;;;;1.73;0.70;;;22.00;94.10;;;;;;5038474;28;19931;-25
2022/09/04 03:56:48;;;;;;;1.40;0.90;;;22.00;94.10;;;;;;5038412;28;20497;-26
2022/09/04 03:59:36;;;;;;;0.95;0.85;;;22.00;94.10;;;;;;5038297;28;20029;-26
2022/09/04 04:02:20;;;;;;;0.80;0.70;;;22.00;94.10;;;;;;5020423;28;20032;-25
2022/09/04 04:04:50;;;;;;;1.35;0.95;;;22.00;94.10;;;;;;5038397;28;20025;-25
2022/09/04 04:07:53;;;;;;;2.60;1.00;;;22.00;94.10;;;;;;5038208;28;20390;-26
2022/09/04 04:10:34;;;;;;;0.88;0.70;;;22.00;94.00;;;;;;5038088;28;20447;-25
2022/09/04 04:13:21;;;;;;;1.02;0.80;;;22.00;94.00;;;;;;5038249;28;20501;-26
2022/09/04 04:16:15;;;;;;;3.33;0.90;;;22.00;94.00;;;;;;5038228;28;20383;-25
2022/09/04 04:18:55;;;;;;;1.35;0.80;;;22.00;94.00;;;;;;5037979;28;20032;-27
2022/09/04 04:21:30;;;;;;;4.25;1.00;;;22.00;94.00;;;;;;5038106;28;20036;-25
2022/09/04 04:24:01;;;;;;;1.45;0.80;;;22.00;94.00;;;;;;5038070;28;20025;-26
2022/09/04 04:27:05;;;;;;;1.85;0.80;;;22.00;94.00;;;;;;5038182;28;20045;-26
2022/09/04 04:29:58;;;;;;;0.95;0.88;;;21.90;93.90;;;;;;5038018;28;20022;-25
2022/09/04 04:32:40;;;;;;;1.65;0.80;;;21.90;93.90;;;;;;5038007;28;20437;-26
2022/09/04 04:35:24;;;;;;;2.33;0.70;;;21.90;93.90;;;;;;5038134;28;20533;-26
2022/09/04 04:38:20;;;;;;;1.13;0.98;;;21.90;93.90;;;;;;5038031;28;20033;-26
2022/09/04 04:41:07;;;;;;;1.30;0.85;;;21.90;93.90;;;;;;5037831;28;20389;-25
2022/09/04 04:45:48;;;;;;;0.88;0.70;;;21.90;93.90;;;;;;5037936;28;20029;-25
2022/09/04 04:47:19;;;;;;;1.08;0.80;;;21.90;93.90;;;;;;5031681;28;20037;-25
2022/09/04 04:50:06;;;;;;;1.00;0.80;;;21.90;93.90;;;;;;5037849;28;20110;-26
2022/09/04 04:52:52;;;;;;;2.40;0.85;;;21.90;93.90;;;;;;5036489;28;20422;-25
2022/09/04 04:55:49;;;;;;;1.00;0.90;;;21.90;93.90;;;;;;5035088;28;20100;-25
2022/09/04 04:58:29;;;;;;;3.42;0.88;;;21.90;93.90;;;;;;5034612;28;20403;-25
2022/09/04 05:01:31;;;;;;;1.20;0.73;;;21.80;93.80;;;;;;5034565;28;20028;-25
2022/09/04 05:04:24;;;;;;;0.80;0.70;;;21.90;93.90;;;;;;5034584;28;20025;-25
2022/09/04 05:07:16;;;;;;;1.45;0.80;;;21.80;93.80;;;;;;5035110;28;20475;-27
2022/09/04 05:09:57;;;;;;;0.82;0.68;;;21.80;93.80;;;;;;5004276;28;20029;-25
2022/09/04 05:12:45;;;;;;;1.15;0.75;;;21.80;93.80;;;;;;5034464;28;20112;-26
2022/09/04 05:15:34;;;;;;;0.85;0.60;;;21.80;93.80;;;;;;5034463;28;20037;-25
2022/09/04 05:18:21;;;;;;;0.85;0.70;;;21.80;93.80;;;;;;5034123;28;20100;-25
2022/09/04 05:20:56;;;;;;;0.80;0.80;;;21.80;93.80;;;;;;5034080;28;20541;-25
2022/09/04 05:24:04;;;;;;;0.80;0.63;;;21.80;93.80;;;;;;5034272;28;20486;-25
2022/09/04 05:26:42;;;;;;;0.90;0.70;;;21.70;93.80;;;;;;5034182;28;20079;-26
2022/09/04 05:29:25;;;;;;;0.70;0.70;;;21.80;93.80;;;;;;5034081;28;20018;-26
2022/09/04 05:32:10;;;;;;;1.23;0.80;;;21.70;93.80;;;;;;5033938;28;20022;-26
2022/09/04 05:34:48;;;;;;;1.65;0.88;;;21.70;94.10;;;;;;5034052;28;20036;-25
2022/09/04 05:37:26;;;;;;;0.75;0.70;;;21.70;93.80;;;;;;5033997;28;20072;-25
2022/09/04 05:40:09;;;;;;;2.53;0.88;;;21.70;93.80;;;;;;5033819;28;20100;-26
2022/09/04 05:42:59;;;;;;;1.58;0.80;;;21.70;93.80;;;;;;5033950;28;20021;-25
2022/09/04 05:45:40;;;;;;;2.40;0.90;;;21.70;93.70;;;;;;5034079;28;20030;-25
2022/09/04 05:48:57;;;;;;;1.67;0.70;;;21.70;93.80;;;;;;5033743;28;20029;-26
2022/09/04 05:52:03;;;;;;;2.22;0.90;;;21.70;93.70;;;;;;5028687;28;20052;-26
2022/09/04 05:54:31;;;;;;;;;;;21.70;93.80;;;;;;5034724;28;20044;-25
2022/09/04 05:57:58;;;;;;;0.90;0.68;;;21.70;93.80;;;;;;5033727;28;19927;-25
2022/09/04 06:00:30;;;;;;;0.95;0.75;;;21.70;93.80;;;;;;4953022;29;20027;-25
2022/09/04 06:03:10;;;;;;;1.38;0.93;;;21.70;93.80;;;;;;4953154;29;20158;-25
2022/09/04 06:05:59;;;;;;;1.70;0.90;;;21.60;93.80;;;;;;5001720;28;20042;-25
2022/09/04 06:08:46;;;;;;;1.33;0.82;;;21.60;93.80;;;;;;5033470;28;20240;-25
2022/09/04 06:11:50;;;;;;;0.88;0.60;;;21.60;93.80;;;;;;5033340;28;20025;-25
2022/09/04 06:14:18;;;;;;;0.70;0.60;;;21.70;93.80;;;;;;5033323;28;20156;-25
2022/09/04 06:16:48;;;;;;;1.02;0.70;;;21.70;93.90;;;;;;5033163;28;20022;-25
2022/09/04 06:19:22;;;;;;;1.10;0.90;;;21.70;93.90;;;;;;5033141;28;20025;-25
2022/09/04 06:22:03;;;;;;;1.08;0.80;;;21.70;93.90;;;;;;5033190;28;20064;-25
2022/09/04 06:24:34;;;;;;;2.03;0.70;;;21.70;93.90;;;;;;5033660;28;20466;-25
2022/09/04 06:27:06;;;;;;;1.15;0.80;;;21.60;93.90;;;;;;5033163;28;20028;-27
2022/09/04 06:30:05;;;;;;;0.70;0.68;;;21.70;93.90;;;;;;5032906;28;20022;-25
2022/09/04 06:33:04;;;;;;;1.10;0.80;;;21.70;93.90;;;;;;5015301;28;20025;-25
2022/09/04 06:36:11;;;;;;;1.17;0.75;;;21.70;93.90;;;;;;5032979;28;20430;-26
2022/09/04 06:38:49;;;;;;;1.00;0.90;;;21.70;93.90;;;;;;5032233;28;20473;-25
2022/09/04 06:41:34;;;;;;;0.80;0.80;;;21.70;93.90;;;;;;5032652;28;20021;-26
2022/09/04 06:44:03;;;;;;;1.02;0.85;;;21.70;93.80;;;;;;5032897;28;20049;-25
2022/09/04 06:47:01;;;;;;;1.55;0.73;;;21.70;93.80;;;;;;5015018;28;20047;-25
2022/09/04 06:49:52;;;;;;;0.80;0.70;;;21.80;93.80;;;;;;5032552;28;20487;-26
2022/09/04 06:52:50;;;;;;;0.82;0.68;;;21.80;93.80;;;;;;5032512;28;20037;-25
2022/09/04 06:55:26;;;;;;;1.38;0.82;;;21.80;93.80;;;;;;5032697;28;20064;-25
2022/09/04 06:58:20;;;;;;;0.80;0.80;;;21.80;93.80;;;;;;5032448;28;20030;-25
2022/09/04 07:00:53;;;;;;;1.10;0.85;;;21.80;93.80;;;;;;5032463;28;20401;-25
2022/09/04 07:03:48;;;;;;;1.02;0.70;;;21.80;93.80;;;;;;5032624;28;20017;-25
2022/09/04 07:06:58;;;;;;;1.17;0.93;;;21.80;93.80;;;;;;5001741;28;20034;-25
2022/09/04 07:09:40;;;;;;;0.93;0.80;;;21.90;93.80;;;;;;4951905;29;20038;-26
2022/09/04 07:12:14;;;;;;;15.27;2.63;;;21.90;93.80;;;;;;4951770;29;20031;-25
2022/09/04 07:15:01;;;;;;;5.97;1.55;;;21.70;94.40;;;;;;5006058;28;20037;-25
2022/09/04 07:17:30;;;;;;;5.47;1.33;;;21.50;94.60;;;;;;5032173;28;20112;-26
2022/09/04 07:20:14;;;;;;;3.67;1.38;;;21.50;94.70;;;;;;5032197;28;20382;-25
2022/09/04 07:23:11;;;;;;;8.18;1.40;;;21.60;94.80;;;;;;5032199;28;20018;-25
2022/09/04 07:25:59;;;;;;;3.42;1.60;;;21.70;94.70;;;;;;5032320;28;20021;-25
2022/09/04 07:28:55;;;;;;;4.07;1.40;;;21.70;94.60;;;;;;5032128;28;20494;-26
2022/09/04 07:31:50;;;;;;;4.47;1.25;;;21.80;94.50;;;;;;5032114;28;20026;-26
2022/09/04 07:34:45;;;;;;;5.20;1.35;;;21.80;94.50;;;;;;5021556;28;20041;-25
2022/09/04 07:37:26;;;;;;;3.72;1.30;;;21.80;94.50;;;;;;5032083;28;20029;-25
2022/09/04 07:40:31;;;;;;;4.38;1.20;;;21.80;94.40;;;;;;5032070;28;20029;-25
2022/09/04 07:43:09;;;;;;;2.00;1.10;;;21.80;94.40;;;;;;5032137;28;20028;-26
2022/09/04 07:45:46;;;;;;;3.42;1.45;;;21.90;94.40;;;;;;5032076;28;20046;-25
2022/09/04 07:48:27;;;;;;;4.15;1.33;;;21.90;94.40;;;;;;5032069;28;20029;-25
2022/09/04 07:51:14;;;;;;;4.38;1.40;;;21.90;94.30;;;;;;5031807;28;20025;-26
2022/09/04 07:53:49;;;;;;;4.20;1.15;;;22.00;94.30;;;;;;5032034;28;20032;-25
2022/09/04 07:56:34;;;;;;;2.22;1.10;;;22.00;94.60;;;;;;5031891;28;20021;-25
2022/09/04 07:59:24;;;;;;;2.90;1.05;;;22.10;94.30;;;;;;5031654;28;20029;-25
2022/09/04 08:02:21;;;;;;;1.85;1.10;;;22.10;94.20;;;;;;5031822;28;20493;-25
2022/09/04 08:05:11;;;;;;;1.20;0.98;;;22.10;94.30;;;;;;4960923;28;20046;-25
2022/09/04 08:07:37;;;;;;;2.03;1.20;;;22.20;94.20;;;;;;5032112;28;20036;-25
2022/09/04 08:10:32;;;;;;;2.90;1.15;;;22.20;94.20;;;;;;5031523;28;20033;-25
2022/09/04 08:13:12;;;;;;;2.63;1.40;;;22.30;94.10;;;;;;5031705;28;20040;-25
2022/09/04 08:15:42;;;;;;;1.75;0.90;;;22.30;94.10;;;;;;5031801;28;20060;-25
2022/09/04 08:18:34;;;;;;;3.53;1.20;;;22.30;94.10;;;;;;5031564;28;20169;-26
2022/09/04 08:21:20;;;;;;;1.40;0.90;;;22.30;94.10;;;;;;5031571;28;20029;-25
2022/09/04 08:24:04;;;;;;;1.90;0.98;;;22.30;94.10;;;;;;5031640;28;20364;-26
2022/09/04 08:26:29;;;;;;;4.18;1.33;;;22.40;94.10;;;;;;5031665;28;20030;-25
2022/09/04 08:29:16;;;;;;;1.08;0.82;;;22.40;94.10;;;;;;5033165;28;20039;-25
2022/09/04 08:31:51;;;;;;;2.30;1.15;;;22.40;94.10;;;;;;5035194;28;20028;-26
2022/09/04 08:34:51;;;;;;;2.40;0.93;;;22.40;94.00;;;;;;5035410;28;20410;-25
2022/09/04 08:37:48;;;;;;;2.17;0.90;;;22.40;94.00;;;;;;5035189;28;20029;-25
2022/09/04 08:40:38;;;;;;;1.90;1.20;;;22.50;94.00;;;;;;5034948;28;20023;-25
2022/09/04 08:43:22;;;;;;;1.88;0.90;;;22.50;94.00;;;;;;5035261;28;20053;-26
2022/09/04 08:46:06;;;;;;;1.95;1.08;;;22.60;94.00;;;;;;5035091;28;20391;-25
2022/09/04 08:49:01;;;;;;;1.77;1.00;;;22.60;93.90;;;;;;5034909;28;20384;-26
2022/09/04 08:51:55;;;;;;;1.75;1.10;;;22.60;93.80;;;;;;5034591;28;20037;-25
2022/09/04 08:54:59;;;;;;;1.38;0.90;;;22.70;93.90;;;;;;5034963;28;20036;-26
2022/09/04 08:58:04;;;;;;;1.85;0.80;;;22.70;93.80;;;;;;5034786;28;20479;-25
2022/09/04 09:00:37;;;;;;;1.25;0.85;;;22.70;93.80;;;;;;5034769;28;20037;-26
2022/09/04 09:03:40;;;;;;;2.35;1.05;;;22.80;93.80;;;;;;5034768;28;20476;-25
2022/09/04 09:06:40;;;;;;;1.02;0.88;;;22.80;93.70;;;;;;5034716;28;20433;-25
2022/09/04 09:09:27;;;;;;;1.77;0.85;;;22.90;93.70;;;;;;5034576;28;20061;-26
2022/09/04 09:12:02;;;;;;;1.33;0.82;;;22.90;93.60;;;;;;5034676;28;20025;-25
2022/09/04 09:14:57;;;;;;;1.77;0.82;;;22.90;93.60;;;;;;5034582;28;20022;-25
2022/09/04 09:17:37;;;;;;;1.60;0.80;;;22.90;93.70;;;;;;5034444;28;20029;-25
2022/09/04 09:20:24;;;;;;;0.77;0.70;;;22.90;93.70;;;;;;5034464;28;20021;-25
2022/09/04 09:23:20;;;;;;;1.67;0.80;;;22.80;93.70;;;;;;5034552;28;20100;-25
2022/09/04 09:25:49;;;;;;;1.63;0.80;;;22.80;93.80;;;;;;4964493;28;20038;-25
2022/09/04 09:28:53;;;;;;;4.70;0.90;;;22.80;93.80;;;;;;5034265;28;20053;-25
2022/09/04 09:31:55;;;;;;;1.02;0.77;;;22.90;93.80;;;;;;5034155;28;20112;-25
2022/09/04 09:35:07;;;;;;;1.08;0.80;;;22.90;93.80;;;;;;5034124;28;20025;-26
2022/09/04 09:38:06;;;;;;;1.20;0.90;;;22.90;93.80;;;;;;5034069;28;20457;-26
2022/09/04 09:40:52;;;;;;;1.02;0.90;;;22.90;93.70;;;;;;5033155;28;20110;-25
2022/09/04 09:43:56;;;;;;;2.17;1.00;;;23.00;93.70;;;;;;5033920;28;20498;-25
2022/09/04 09:46:47;;;;;;;1.40;0.80;;;23.00;93.60;;;;;;5034006;28;20028;-25
2022/09/04 09:49:28;;;;;;;0.75;0.65;;;23.10;93.60;;;;;;5033872;28;20329;-25
2022/09/04 09:52:28;;;;;;;0.82;0.70;;;23.10;93.60;;;;;;5033732;28;20076;-25
2022/09/04 09:55:02;;;;;;;1.23;0.80;;;23.10;93.60;;;;;;5015847;28;20037;-25
2022/09/04 09:57:45;;;;;;;0.70;0.70;;;23.10;93.60;;;;;;5033813;28;20029;-25
2022/09/04 10:00:16;;;;;;;1.67;0.70;;;23.20;93.60;;;;;;5033572;28;20021;-25
2022/09/04 10:03:15;;;;;;;2.83;0.90;;;23.20;93.60;;;;;;5033595;28;20017;-25
2022/09/04 10:06:06;;;;;;;1.20;0.82;;;23.20;93.50;;;;;;5033712;28;20025;-25
2022/09/04 10:08:50;;;;;;;1.00;0.85;;;23.20;93.50;;;;;;5033494;28;20313;-25
2022/09/04 10:11:35;;;;;;;1.02;0.80;;;23.30;93.40;;;;;;5033264;28;20029;-25
2022/09/04 10:14:10;;;;;;;1.00;0.70;;;23.30;93.40;;;;;;5033392;28;20029;-26
2022/09/04 10:16:48;;;;;;;0.80;0.60;;;23.30;93.40;;;;;;5033396;28;20048;-25
2022/09/04 10:19:35;;;;;;;0.85;0.73;;;23.30;93.50;;;;;;5033014;28;20390;-25
2022/09/04 10:22:13;;;;;;;1.20;0.75;;;23.30;93.50;;;;;;5032902;28;20036;-25
2022/09/04 10:25:16;;;;;;;1.15;0.70;;;23.30;93.50;;;;;;5033114;28;20037;-25
2022/09/04 10:28:01;;;;;;;1.27;0.73;;;23.30;93.50;;;;;;5033035;28;20032;-25
2022/09/04 10:30:51;;;;;;;1.48;0.77;;;23.30;93.50;;;;;;5032719;28;20522;-26
2022/09/04 10:33:26;;;;;;;0.73;0.60;;;23.20;93.50;;;;;;5018794;28;20045;-25
2022/09/04 10:36:13;;;;;;;1.20;0.65;;;23.20;93.50;;;;;;5032963;28;20026;-25
2022/09/04 10:42:10;;;;;;;0.90;0.68;;;23.20;93.60;;;;;;5032749;28;20041;-25
2022/09/04 10:44:59;;;;;;;1.20;0.80;;;23.20;93.60;;;;;;5033269;28;20171;-25
2022/09/04 10:47:57;;;;;;;1.80;0.90;;;23.20;93.70;;;;;;5032668;28;20026;-25
2022/09/04 10:50:55;;;;;;;1.15;0.70;;;23.20;93.70;;;;;;5032463;28;20109;-25
2022/09/04 10:53:57;;;;;;;1.55;0.60;;;23.20;93.70;;;;;;5032599;28;20116;-25
2022/09/04 10:56:36;;;;;;;1.77;0.90;;;23.10;93.80;;;;;;5032651;28;20104;-25
2022/09/04 10:59:28;;;;;;;1.00;0.77;;;23.00;93.80;;;;;;5032359;28;20022;-26
2022/09/04 11:02:11;;;;;;;9.63;1.10;;;23.00;93.80;;;;;;5032220;28;20160;-26
2022/09/04 11:04:37;;;;;;;3.38;0.98;;;22.90;92.80;;;;;;5032518;28;20490;-25
2022/09/04 11:07:08;;;;;;;2.30;1.15;;;22.80;93.10;;;;;;5032607;28;20017;-25
2022/09/04 11:09:50;;;;;;;3.45;0.95;;;22.80;93.20;;;;;;5032291;28;20093;-25
2022/09/04 11:12:50;;;;;;;1.50;0.70;;;22.90;93.30;;;;;;5032151;28;20021;-26
2022/09/04 11:15:58;;;;;;;2.25;1.35;;;22.80;93.40;;;;;;5032334;28;20036;-26
2022/09/04 11:18:27;;;;;;;2.35;0.98;;;22.80;93.50;;;;;;4994219;28;20095;-26
2022/09/04 11:21:02;;;;;;;2.58;0.80;;;22.70;93.60;;;;;;5032114;28;20104;-25
2022/09/04 11:23:42;;;;;;;;;;;22.80;93.60;;;;;;5032651;28;20021;-26
2022/09/04 11:26:34;;;;;;;2.33;1.00;;;22.80;93.60;;;;;;5032275;28;19912;-25
2022/09/04 11:29:29;;;;;;;1.92;0.60;;;22.80;93.60;;;;;;5032114;28;20021;-25
2022/09/04 11:32:37;;;;;;;2.03;0.85;;;22.90;93.60;;;;;;5032088;28;20045;-26
2022/09/04 11:35:18;;;;;;;1.30;0.77;;;22.90;93.50;;;;;;5001183;28;20026;-25
2022/09/04 11:38:16;;;;;;;1.73;0.90;;;23.00;93.50;;;;;;5031904;28;20025;-26
2022/09/04 11:41:06;;;;;;;1.45;1.08;;;23.10;93.40;;;;;;5031834;28;20037;-26
2022/09/04 11:43:53;;;;;;;2.78;0.80;;;23.10;93.30;;;;;;5032007;28;20037;-26
2022/09/04 11:46:46;;;;;;;2.20;0.80;;;23.20;93.20;;;;;;5032093;28;20541;-25
2022/09/04 11:49:19;;;;;;;0.98;0.68;;;23.30;93.10;;;;;;5031861;28;20060;-25
2022/09/04 11:51:58;;;;;;;1.73;0.90;;;23.40;93.40;;;;;;5014055;28;20127;-25
2022/09/04 11:54:26;;;;;;;0.80;0.70;;;23.40;93.00;;;;;;5071724;22;20608;-23
2022/09/04 11:57:12;;;;;;;0.85;0.63;;;23.40;93.00;;;;;;5053768;28;20029;-25
2022/09/04 11:59:59;;;;;;;1.67;0.55;;;23.50;93.00;;;;;;5052618;28;20028;-24
2022/09/04 12:02:31;;;;;;;1.75;0.80;;;23.50;93.00;;;;;;5053499;28;20425;-24
2022/09/04 12:05:23;;;;;;;1.50;0.80;;;23.50;92.90;;;;;;5036419;28;20030;-23
2022/09/04 12:08:08;;;;;;;1.58;0.90;;;23.60;92.90;;;;;;5036297;28;20080;-23
2022/09/04 12:11:08;;;;;;;1.83;1.02;;;23.60;92.80;;;;;;5035978;28;20498;-23
2022/09/04 12:13:45;;;;;;;1.65;0.77;;;23.60;92.80;;;;;;5035690;28;20032;-24
2022/09/04 12:16:48;;;;;;;0.73;0.70;;;23.60;92.70;;;;;;5036003;28;20510;-24
2022/09/04 12:19:49;;;;;;;1.63;0.63;;;23.60;92.70;;;;;;5035692;28;20069;-24
2022/09/04 12:22:36;;;;;;;1.50;0.80;;;23.60;92.80;;;;;;5035730;28;20029;-24
2022/09/04 12:25:35;;;;;;;1.10;0.80;;;23.60;92.90;;;;;;5035821;28;20060;-24
2022/09/04 12:28:19;;;;;;;1.00;0.57;;;23.60;93.00;;;;;;5035459;28;20029;-24
2022/09/04 12:31:03;;;;;;;1.00;0.70;;;23.50;93.00;;;;;;5035466;28;20478;-24
2022/09/04 12:33:51;;;;;;;3.33;0.80;;;23.50;93.00;;;;;;5035369;28;20041;-24
2022/09/04 12:36:52;;;;;;;1.27;0.80;;;23.40;93.00;;;;;;5035482;28;20032;-24
2022/09/04 12:39:38;;;;;;;0.95;0.75;;;23.40;93.10;;;;;;5035042;28;20037;-24
2022/09/04 12:42:08;;;;;;;0.73;0.60;;;23.40;93.20;;;;;;5035241;28;20439;-24
2022/09/04 12:44:38;;;;;;;1.00;0.60;;;23.40;93.20;;;;;;5035174;28;20022;-24
2022/09/04 12:47:23;;;;;;;0.80;0.70;;;23.30;93.20;;;;;;5035023;28;20368;-23
2022/09/04 12:50:17;;;;;;;1.33;0.82;;;23.40;93.30;;;;;;5035130;28;20025;-23
2022/09/04 12:52:56;;;;;;;1.87;0.90;;;23.40;93.30;;;;;;5035001;28;20036;-23
2022/09/04 12:55:33;;;;;;;1.25;0.77;;;23.40;93.30;;;;;;5017475;28;20027;-23
2022/09/04 12:58:37;;;;;;;1.02;0.80;;;23.40;93.30;;;;;;5017084;28;20036;-23
2022/09/04 13:01:35;;;;;;;1.50;0.75;;;23.40;93.20;;;;;;5035104;28;20045;-23
2022/09/04 13:04:09;;;;;;;1.27;0.77;;;23.40;93.20;;;;;;4994103;28;20040;-23
2022/09/04 13:06:45;;;;;;;1.40;0.80;;;23.40;93.30;;;;;;5034813;28;20029;-23
2022/09/04 13:09:17;;;;;;;1.15;0.63;;;23.40;93.30;;;;;;5034739;28;20375;-23
2022/09/04 13:11:58;;;;;;;0.98;0.68;;;23.40;93.30;;;;;;5034742;28;20507;-23
2022/09/04 13:14:36;;;;;;;1.00;0.80;;;23.40;93.20;;;;;;5033765;28;20159;-23
2022/09/04 13:17:16;;;;;;;0.88;0.73;;;23.40;93.30;;;;;;5016633;28;20021;-23
2022/09/04 13:20:05;;;;;;;1.70;0.88;;;23.40;93.30;;;;;;5034673;28;20087;-23
2022/09/04 13:22:48;;;;;;;1.20;0.77;;;23.40;93.30;;;;;;5016460;28;20029;-23
2022/09/04 13:25:42;;;;;;;0.82;0.80;;;23.40;93.30;;;;;;5034619;28;20033;-23
2022/09/04 13:28:34;;;;;;;1.20;0.82;;;23.40;93.30;;;;;;5034266;28;20111;-22
2022/09/04 13:31:12;;;;;;;0.90;0.60;;;23.40;93.30;;;;;;5034576;28;20107;-23
2022/09/04 13:33:52;;;;;;;1.20;0.60;;;23.40;93.40;;;;;;5034525;28;20395;-23
2022/09/04 13:36:18;;;;;;;0.65;0.60;;;23.40;93.40;;;;;;5035188;28;20036;-23
2022/09/04 13:39:01;;;;;;;0.85;0.70;;;23.40;93.40;;;;;;5035755;28;20029;-23
2022/09/04 13:41:33;;;;;;;0.50;0.50;;;23.40;93.40;;;;;;5035506;28;20368;-23
2022/09/04 13:44:44;;;;;;;0.93;0.60;;;23.40;93.40;;;;;;5034696;28;20017;-23
2022/09/04 13:47:12;;;;;;;0.70;0.70;;;23.50;93.30;;;;;;5004268;28;20512;-23
2022/09/04 13:49:46;;;;;;;0.80;0.60;;;23.50;93.30;;;;;;5034236;28;20021;-23
2022/09/04 13:52:26;;;;;;;1.10;0.77;;;23.60;93.20;;;;;;5034431;28;20029;-23
2022/09/04 13:55:23;;;;;;;1.00;0.63;;;23.60;93.20;;;;;;5033672;28;20040;-23
2022/09/04 13:58:18;;;;;;;1.10;0.70;;;23.60;93.20;;;;;;5017209;28;20033;-23
2022/09/04 14:00:58;;;;;;;5.75;0.70;;;23.60;93.10;;;;;;5034142;28;20026;-23
2022/09/04 14:03:30;;;;;;;1.00;0.60;;;23.70;93.10;;;;;;5033754;28;20021;-23
2022/09/04 14:05:57;;;;;;;0.93;0.70;;;23.70;93.10;;;;;;5033753;28;20018;-23
2022/09/04 14:08:23;;;;;;;0.57;0.57;;;23.70;93.00;;;;;;5032338;28;20112;-23
2022/09/04 14:11:03;;;;;;;0.70;0.50;;;23.80;93.00;;;;;;5033858;28;20025;-23
2022/09/04 14:14:02;;;;;;;0.85;0.68;;;23.80;93.00;;;;;;5033868;28;20078;-23
2022/09/04 14:16:35;;;;;;;1.55;0.68;;;23.80;92.90;;;;;;5015770;28;20028;-23
2022/09/04 14:19:12;;;;;;;1.05;0.68;;;23.80;92.90;;;;;;5033723;28;20107;-23
2022/09/04 14:22:01;;;;;;;1.33;0.55;;;23.80;92.90;;;;;;5033728;28;20109;-23
2022/09/04 14:24:48;;;;;;;0.80;0.60;;;23.80;93.30;;;;;;5033814;28;20022;-23